TCA7760 SVMI-SVBC
Flight info
| Callsign | TCA7760 |
|---|---|
| Flight time | 0h 31m |
| Altitude | 23000 |
| Route | OSMAR2 OSMAR W20 CBC A552 MEXOT |
| Aircraft | LJ35/M-SGHRWXY/SB1 |
Departure
| Time | 2026-04-26 16:21 |
|---|---|
| Airport | Maiquetía Simón Bolívar International Airport (SVMI) |
Arrival
| Time | 2026-04-26 16:53 |
|---|---|
| Airport | General José Antonio Anzoategui International Airport (SVBC) |
| Time | Latitude | Longitude | Altitude | Speed | Heading |
|---|---|---|---|---|---|
| 2026-04-26 16:16 | 10.59739 | -66.99418 | 209 ft | 0 kts | 76° |
| 2026-04-26 16:18 | 10.59740 | -66.99412 | 208 ft | 4 kts | 76° |
| 2026-04-26 16:18 | 10.59798 | -66.99470 | 206 ft | 12 kts | 263° |
| 2026-04-26 16:19 | 10.59822 | -66.99671 | 218 ft | 15 kts | 276° |
| 2026-04-26 16:19 | 10.59823 | -66.99679 | 216 ft | 0 kts | 275° |
| 2026-04-26 16:19 | 10.59828 | -66.99712 | 215 ft | 11 kts | 301° |
| 2026-04-26 16:20 | 10.59898 | -66.99661 | 213 ft | 14 kts | 76° |
| 2026-04-26 16:20 | 10.59909 | -66.99614 | 215 ft | 0 kts | 75° |
| 2026-04-26 16:20 | 10.59915 | -66.99591 | 209 ft | 29 kts | 77° |
| 2026-04-26 16:21 | 10.60065 | -66.98979 | 180 ft | 143 kts | 76° |
| 2026-04-26 16:21 | 10.60325 | -66.97888 | 1235 ft | 139 kts | 77° |
| 2026-04-26 16:21 | 10.60575 | -66.96749 | 2094 ft | 199 kts | 77° |
| 2026-04-26 16:21 | 10.61063 | -66.95273 | 2898 ft | 233 kts | 65° |
| 2026-04-26 16:22 | 10.61681 | -66.93749 | 4367 ft | 235 kts | 72° |
| 2026-04-26 16:22 | 10.62112 | -66.92135 | 5862 ft | 238 kts | 75° |
| 2026-04-26 16:22 | 10.62571 | -66.90516 | 7323 ft | 238 kts | 72° |
| 2026-04-26 16:22 | 10.63082 | -66.88892 | 8647 ft | 244 kts | 72° |
| 2026-04-26 16:23 | 10.63602 | -66.87219 | 9608 ft | 251 kts | 72° |
| 2026-04-26 16:23 | 10.64123 | -66.85509 | 10488 ft | 256 kts | 72° |
| 2026-04-26 16:23 | 10.64660 | -66.83763 | 11493 ft | 260 kts | 72° |
| 2026-04-26 16:23 | 10.65197 | -66.82008 | 12866 ft | 262 kts | 72° |
| 2026-04-26 16:24 | 10.65736 | -66.80249 | 14199 ft | 265 kts | 72° |
| 2026-04-26 16:24 | 10.66286 | -66.78447 | 15525 ft | 266 kts | 72° |
| 2026-04-26 16:24 | 10.66842 | -66.76630 | 16750 ft | 273 kts | 72° |
| 2026-04-26 16:24 | 10.67413 | -66.74766 | 17908 ft | 279 kts | 72° |
| 2026-04-26 16:25 | 10.67996 | -66.72865 | 19047 ft | 285 kts | 72° |
| 2026-04-26 16:25 | 10.68589 | -66.70925 | 20156 ft | 290 kts | 72° |
| 2026-04-26 16:25 | 10.69194 | -66.68945 | 21238 ft | 296 kts | 72° |
| 2026-04-26 16:25 | 10.69810 | -66.66929 | 22290 ft | 301 kts | 72° |
| 2026-04-26 16:26 | 10.70448 | -66.64845 | 23000 ft | 322 kts | 72° |
| 2026-04-26 16:26 | 10.70905 | -66.63346 | 23024 ft | 348 kts | 72° |
| 2026-04-26 16:26 | 10.71931 | -66.59987 | 23035 ft | 394 kts | 73° |
| 2026-04-26 16:26 | 10.72464 | -66.57167 | 23023 ft | 415 kts | 85° |
| 2026-04-26 16:27 | 10.72385 | -66.54207 | 23024 ft | 423 kts | 97° |
| 2026-04-26 16:27 | 10.71699 | -66.51288 | 23023 ft | 427 kts | 107° |
| 2026-04-26 16:27 | 10.70785 | -66.48395 | 23018 ft | 430 kts | 108° |
| 2026-04-26 16:27 | 10.69871 | -66.45501 | 23017 ft | 430 kts | 108° |
| 2026-04-26 16:28 | 10.68994 | -66.42632 | 23017 ft | 430 kts | 107° |
| 2026-04-26 16:28 | 10.68106 | -66.39723 | 23016 ft | 430 kts | 107° |
| 2026-04-26 16:28 | 10.67207 | -66.36822 | 23019 ft | 430 kts | 108° |
| 2026-04-26 16:28 | 10.66306 | -66.33928 | 23019 ft | 430 kts | 108° |
| 2026-04-26 16:29 | 10.65411 | -66.31029 | 23018 ft | 430 kts | 107° |
| 2026-04-26 16:29 | 10.64517 | -66.28132 | 23017 ft | 430 kts | 108° |
| 2026-04-26 16:29 | 10.63620 | -66.25234 | 23013 ft | 430 kts | 108° |
| 2026-04-26 16:29 | 10.62735 | -66.22373 | 23017 ft | 416 kts | 107° |
| 2026-04-26 16:30 | 10.61884 | -66.19616 | 23012 ft | 401 kts | 107° |
| 2026-04-26 16:30 | 10.61056 | -66.16945 | 22773 ft | 396 kts | 108° |
| 2026-04-26 16:30 | 10.60504 | -66.15168 | 22457 ft | 398 kts | 108° |
| 2026-04-26 16:30 | 10.59676 | -66.12497 | 22139 ft | 395 kts | 108° |
| 2026-04-26 16:31 | 10.58853 | -66.09840 | 21813 ft | 393 kts | 108° |
| 2026-04-26 16:31 | 10.58033 | -66.07194 | 21498 ft | 391 kts | 108° |
| 2026-04-26 16:31 | 10.57356 | -66.04529 | 21157 ft | 390 kts | 99° |
| 2026-04-26 16:31 | 10.57136 | -66.01790 | 20877 ft | 387 kts | 93° |
| 2026-04-26 16:32 | 10.56971 | -65.99061 | 20580 ft | 386 kts | 94° |
| 2026-04-26 16:32 | 10.56785 | -65.96352 | 20290 ft | 384 kts | 94° |
| 2026-04-26 16:32 | 10.56599 | -65.93651 | 20006 ft | 382 kts | 94° |
| 2026-04-26 16:32 | 10.56422 | -65.90958 | 19728 ft | 381 kts | 94° |
| 2026-04-26 16:33 | 10.56247 | -65.88278 | 19457 ft | 379 kts | 94° |
| 2026-04-26 16:33 | 10.56069 | -65.85611 | 19190 ft | 378 kts | 94° |
| 2026-04-26 16:33 | 10.55891 | -65.82951 | 18930 ft | 376 kts | 94° |
| 2026-04-26 16:33 | 10.55715 | -65.80304 | 18676 ft | 375 kts | 94° |
| 2026-04-26 16:34 | 10.55541 | -65.77704 | 18430 ft | 373 kts | 94° |
| 2026-04-26 16:34 | 10.55366 | -65.75079 | 18186 ft | 372 kts | 94° |
| 2026-04-26 16:34 | 10.55190 | -65.72460 | 17949 ft | 371 kts | 94° |
| 2026-04-26 16:34 | 10.55016 | -65.69851 | 17717 ft | 369 kts | 94° |
| 2026-04-26 16:35 | 10.54842 | -65.67256 | 17492 ft | 368 kts | 94° |
| 2026-04-26 16:35 | 10.54668 | -65.64662 | 17271 ft | 367 kts | 94° |
| 2026-04-26 16:35 | 10.54494 | -65.62078 | 17057 ft | 366 kts | 94° |
| 2026-04-26 16:35 | 10.54320 | -65.59502 | 16847 ft | 364 kts | 94° |
| 2026-04-26 16:36 | 10.54152 | -65.56934 | 16629 ft | 363 kts | 93° |
| 2026-04-26 16:36 | 10.53989 | -65.54377 | 16318 ft | 362 kts | 94° |
| 2026-04-26 16:36 | 10.53816 | -65.51836 | 16043 ft | 360 kts | 94° |
| 2026-04-26 16:36 | 10.53640 | -65.49300 | 15765 ft | 359 kts | 94° |
| 2026-04-26 16:37 | 10.53469 | -65.46778 | 15500 ft | 357 kts | 94° |
| 2026-04-26 16:37 | 10.53301 | -65.44295 | 15222 ft | 355 kts | 94° |
| 2026-04-26 16:37 | 10.53134 | -65.41799 | 14760 ft | 354 kts | 94° |
| 2026-04-26 16:37 | 10.52964 | -65.39311 | 14328 ft | 351 kts | 94° |
| 2026-04-26 16:38 | 10.52795 | -65.36844 | 13896 ft | 349 kts | 94° |
| 2026-04-26 16:38 | 10.52628 | -65.34390 | 13479 ft | 347 kts | 94° |
| 2026-04-26 16:38 | 10.52461 | -65.31948 | 13070 ft | 345 kts | 94° |
| 2026-04-26 16:38 | 10.52295 | -65.29527 | 12669 ft | 343 kts | 94° |
| 2026-04-26 16:39 | 10.52129 | -65.27120 | 12221 ft | 340 kts | 94° |
| 2026-04-26 16:39 | 10.51962 | -65.24729 | 11766 ft | 338 kts | 94° |
| 2026-04-26 16:39 | 10.51808 | -65.22353 | 11272 ft | 336 kts | 93° |
| 2026-04-26 16:39 | 10.51665 | -65.19989 | 10798 ft | 333 kts | 94° |
| 2026-04-26 16:40 | 10.51519 | -65.17675 | 10322 ft | 331 kts | 94° |
| 2026-04-26 16:40 | 10.51369 | -65.15358 | 10013 ft | 323 kts | 94° |
| 2026-04-26 16:40 | 10.51224 | -65.13136 | 10016 ft | 308 kts | 94° |
| 2026-04-26 16:40 | 10.51087 | -65.11004 | 9997 ft | 297 kts | 94° |
| 2026-04-26 16:41 | 10.50954 | -65.08944 | 9997 ft | 286 kts | 94° |
| 2026-04-26 16:41 | 10.50828 | -65.06985 | 10006 ft | 268 kts | 94° |
| 2026-04-26 16:41 | 10.50713 | -65.05175 | 9699 ft | 254 kts | 94° |
| 2026-04-26 16:41 | 10.50599 | -65.03377 | 9098 ft | 254 kts | 94° |
| 2026-04-26 16:42 | 10.50484 | -65.01597 | 8556 ft | 251 kts | 94° |
| 2026-04-26 16:42 | 10.50136 | -64.99873 | 7998 ft | 248 kts | 111° |
| 2026-04-26 16:42 | 10.49302 | -64.98359 | 7255 ft | 248 kts | 129° |
| 2026-04-26 16:42 | 10.48071 | -64.97160 | 6689 ft | 241 kts | 143° |
| 2026-04-26 16:43 | 10.46714 | -64.96168 | 5916 ft | 240 kts | 144° |
| 2026-04-26 16:43 | 10.45370 | -64.95175 | 5196 ft | 238 kts | 144° |
| 2026-04-26 16:43 | 10.44046 | -64.94181 | 4478 ft | 235 kts | 143° |
| 2026-04-26 16:43 | 10.42736 | -64.93198 | 3773 ft | 234 kts | 144° |
| 2026-04-26 16:44 | 10.41442 | -64.92233 | 3295 ft | 232 kts | 144° |
| 2026-04-26 16:44 | 10.40149 | -64.91265 | 2804 ft | 230 kts | 144° |
| 2026-04-26 16:44 | 10.38864 | -64.90306 | 2324 ft | 228 kts | 144° |
| 2026-04-26 16:44 | 10.37594 | -64.89357 | 1973 ft | 221 kts | 144° |
| 2026-04-26 16:45 | 10.36416 | -64.88475 | 1958 ft | 200 kts | 144° |
| 2026-04-26 16:45 | 10.35331 | -64.87666 | 1957 ft | 189 kts | 144° |
| 2026-04-26 16:45 | 10.34296 | -64.86893 | 1955 ft | 180 kts | 144° |
| 2026-04-26 16:45 | 10.33310 | -64.86158 | 1955 ft | 171 kts | 144° |
| 2026-04-26 16:46 | 10.32380 | -64.85465 | 1953 ft | 160 kts | 144° |
| 2026-04-26 16:46 | 10.31494 | -64.84802 | 1952 ft | 154 kts | 144° |
| 2026-04-26 16:46 | 10.30638 | -64.84164 | 1953 ft | 147 kts | 144° |
| 2026-04-26 16:46 | 10.29829 | -64.83560 | 1955 ft | 147 kts | 144° |
| 2026-04-26 16:47 | 10.28991 | -64.82948 | 1882 ft | 151 kts | 145° |
| 2026-04-26 16:47 | 10.28140 | -64.82333 | 1816 ft | 149 kts | 144° |
| 2026-04-26 16:47 | 10.27298 | -64.81721 | 1735 ft | 149 kts | 145° |
| 2026-04-26 16:47 | 10.26455 | -64.81115 | 1723 ft | 149 kts | 145° |
| 2026-04-26 16:48 | 10.25618 | -64.80489 | 1686 ft | 149 kts | 143° |
| 2026-04-26 16:48 | 10.24787 | -64.79869 | 1673 ft | 148 kts | 144° |
| 2026-04-26 16:48 | 10.23968 | -64.79239 | 1690 ft | 146 kts | 142° |
| 2026-04-26 16:48 | 10.23179 | -64.78566 | 1646 ft | 148 kts | 140° |
| 2026-04-26 16:49 | 10.22406 | -64.77913 | 1684 ft | 146 kts | 141° |
| 2026-04-26 16:49 | 10.21593 | -64.77273 | 1660 ft | 146 kts | 143° |
| 2026-04-26 16:49 | 10.20776 | -64.76667 | 1718 ft | 146 kts | 145° |
| 2026-04-26 16:49 | 10.19932 | -64.76060 | 1641 ft | 151 kts | 145° |
| 2026-04-26 16:50 | 10.19100 | -64.75431 | 1623 ft | 147 kts | 143° |
| 2026-04-26 16:50 | 10.18286 | -64.74803 | 1571 ft | 147 kts | 143° |
| 2026-04-26 16:50 | 10.17483 | -64.74158 | 1471 ft | 148 kts | 142° |
| 2026-04-26 16:50 | 10.16664 | -64.73508 | 1294 ft | 149 kts | 142° |
| 2026-04-26 16:51 | 10.15840 | -64.72865 | 1066 ft | 150 kts | 142° |
| 2026-04-26 16:51 | 10.15011 | -64.72222 | 845 ft | 150 kts | 143° |
| 2026-04-26 16:51 | 10.14198 | -64.71591 | 641 ft | 148 kts | 143° |
| 2026-04-26 16:51 | 10.13375 | -64.70953 | 404 ft | 149 kts | 143° |
| 2026-04-26 16:52 | 10.12555 | -64.70323 | 178 ft | 147 kts | 144° |
| 2026-04-26 16:52 | 10.11997 | -64.69900 | 57 ft | 147 kts | 143° |
| 2026-04-26 16:52 | 10.11048 | -64.69168 | 29 ft | 96 kts | 142° |
| 2026-04-26 16:52 | 10.10615 | -64.68835 | 29 ft | 66 kts | 143° |
| 2026-04-26 16:53 | 10.10313 | -64.68602 | 33 ft | 30 kts | 142° |
| 2026-04-26 16:53 | 10.10265 | -64.68559 | 34 ft | 8 kts | 110° |
| 2026-04-26 16:53 | 10.10297 | -64.68497 | 32 ft | 13 kts | 55° |
| 2026-04-26 16:53 | 10.10360 | -64.68412 | 31 ft | 12 kts | 52° |
| 2026-04-26 16:54 | 10.10403 | -64.68359 | 30 ft | 5 kts | 24° |
| 2026-04-26 16:54 | 10.10426 | -64.68377 | 30 ft | 1 kts | 237° |